createdAt,value
2023-05-05T00:02:40.745Z,17.17
2023-05-05T00:05:26.893Z,22.73
2023-05-05T00:08:12.753Z,16.17
2023-05-05T00:10:58.616Z,12.10
2023-05-05T00:13:44.611Z,19.75
2023-05-05T00:16:30.623Z,14.68
2023-05-05T00:19:16.749Z,11.95
2023-05-05T00:22:02.904Z,9.90
2023-05-05T00:24:49.142Z,10.13
2023-05-05T00:27:34.899Z,7.53
2023-05-05T00:30:23.819Z,9.20
2023-05-05T00:33:16.226Z,6.40
2023-05-05T00:36:10.815Z,9.13
2023-05-05T00:39:11.163Z,13.55
2023-05-05T00:41:57.100Z,10.25
2023-05-05T00:44:46.817Z,10.40
2023-05-05T00:47:33.053Z,9.90
2023-05-05T00:50:30.419Z,10.77
2023-05-05T00:53:16.241Z,33.60
2023-05-05T00:56:02.600Z,22.52
2023-05-05T00:58:49.187Z,22.00
2023-05-05T01:01:44.764Z,16.77
2023-05-05T01:04:34.992Z,18.13
2023-05-05T01:08:09.638Z,16.17
2023-05-05T01:11:09.001Z,18.23
2023-05-05T01:14:16.388Z,18.80
2023-05-05T01:17:25.038Z,19.05
2023-05-05T01:20:33.547Z,15.50
2023-05-05T01:23:45.999Z,21.73
2023-05-05T01:27:18.192Z,18.13
2023-05-05T01:30:22.440Z,21.52
2023-05-05T01:33:10.362Z,24.27
2023-05-05T01:36:03.895Z,20.13
2023-05-05T01:38:55.030Z,29.63
2023-05-05T01:41:47.708Z,22.23
2023-05-05T01:44:41.356Z,20.88
2023-05-05T01:47:28.525Z,19.85
2023-05-05T01:50:15.520Z,22.40
2023-05-05T01:53:05.485Z,14.32
2023-05-05T01:55:52.301Z,15.30
2023-05-05T01:58:38.745Z,19.60
2023-05-05T02:01:29.734Z,16.70
2023-05-05T02:04:18.110Z,14.52
2023-05-05T02:07:04.048Z,14.73
2023-05-05T02:09:51.261Z,17.85
2023-05-05T02:12:37.545Z,15.38
2023-05-05T02:15:24.321Z,17.13
2023-05-05T02:18:11.296Z,18.60
2023-05-05T02:20:57.298Z,18.83
2023-05-05T02:23:45.631Z,18.52
2023-05-05T02:26:33.922Z,17.75
2023-05-05T02:29:42.018Z,15.18
2023-05-05T02:32:34.408Z,17.88
2023-05-05T02:35:23.511Z,7.97
2023-05-05T02:38:22.669Z,10.82
2023-05-05T02:41:12.684Z,14.35
2023-05-05T02:43:59.981Z,8.35
2023-05-05T02:46:47.576Z,11.20
2023-05-05T02:49:33.499Z,6.60
2023-05-05T02:52:20.327Z,6.78
2023-05-05T02:55:07.340Z,6.15
2023-05-05T02:57:57.725Z,6.88
2023-05-05T03:00:53.896Z,8.73
2023-05-05T03:03:47.647Z,5.82
2023-05-05T03:06:43.991Z,6.53
2023-05-05T03:09:52.231Z,9.50
2023-05-05T03:12:59.469Z,7.47
2023-05-05T03:15:53.000Z,12.10
2023-05-05T03:18:42.896Z,19.27
2023-05-05T03:21:29.521Z,26.52
2023-05-05T03:24:20.129Z,8.63
2023-05-05T03:27:18.165Z,9.77
2023-05-05T03:30:04.707Z,6.35
2023-05-05T03:32:53.039Z,5.57
2023-05-05T03:35:39.829Z,9.45
2023-05-05T03:38:28.590Z,9.45
2023-05-05T03:41:14.317Z,6.18
2023-05-05T03:44:00.347Z,11.02
2023-05-05T03:46:46.575Z,9.90
2023-05-05T03:49:34.411Z,8.27
2023-05-05T03:52:20.091Z,16.35
2023-05-05T03:55:06.979Z,11.52
2023-05-05T03:57:52.723Z,11.70
2023-05-05T04:00:38.821Z,14.70
2023-05-05T04:03:24.765Z,14.60
2023-05-05T04:06:11.007Z,17.98
2023-05-05T04:08:57.248Z,41.85
2023-05-05T04:11:43.024Z,17.60
2023-05-05T04:14:29.354Z,20.25
2023-05-05T04:17:15.770Z,14.73
2023-05-05T04:20:01.863Z,7.80
2023-05-05T04:22:52.707Z,7.68
2023-05-05T04:25:40.170Z,9.50
2023-05-05T04:28:39.618Z,8.70
2023-05-05T04:31:26.108Z,7.43
2023-05-05T04:34:12.506Z,10.13
2023-05-05T04:36:58.529Z,8.75
2023-05-05T04:39:45.605Z,10.05
2023-05-05T04:42:31.753Z,11.70
2023-05-05T04:45:17.902Z,8.70
2023-05-05T04:48:05.332Z,16.95
2023-05-05T04:50:51.495Z,8.35
2023-05-05T04:53:37.506Z,18.30
2023-05-05T04:56:23.289Z,23.38
2023-05-05T04:59:09.318Z,13.32
2023-05-05T05:01:55.009Z,16.25
2023-05-05T05:04:41.401Z,9.77
2023-05-05T05:07:27.322Z,11.15
2023-05-05T05:10:13.471Z,12.20
2023-05-05T05:12:59.565Z,7.78
2023-05-05T05:15:45.949Z,8.85
2023-05-05T05:18:31.614Z,15.20
2023-05-05T05:21:17.408Z,10.38
2023-05-05T05:24:03.366Z,7.82
2023-05-05T05:26:49.508Z,7.82
2023-05-05T05:29:35.738Z,10.90
2023-05-05T05:32:22.474Z,11.00
2023-05-05T05:35:09.255Z,17.38
2023-05-05T05:37:55.740Z,8.98
2023-05-05T05:40:42.355Z,12.30
2023-05-05T05:43:28.301Z,14.57
2023-05-05T05:46:14.009Z,12.10
2023-05-05T05:49:01.306Z,11.98
2023-05-05T05:51:47.190Z,14.30
2023-05-05T05:54:35.639Z,11.77
2023-05-05T05:57:24.635Z,9.80
2023-05-05T06:00:11.752Z,13.23
2023-05-05T06:03:04.197Z,17.65
2023-05-05T06:05:54.452Z,7.93
2023-05-05T06:08:41.207Z,14.88
2023-05-05T06:11:27.294Z,12.15
2023-05-05T06:14:12.982Z,10.80
2023-05-05T06:16:58.906Z,20.92
2023-05-05T06:19:46.780Z,18.80
2023-05-05T06:22:33.006Z,13.90
2023-05-05T06:25:19.023Z,20.60
2023-05-05T06:28:05.768Z,14.60
2023-05-05T06:30:51.928Z,23.13
2023-05-05T06:33:38.189Z,16.92
2023-05-05T06:36:24.321Z,16.58
2023-05-05T06:39:10.337Z,15.65
2023-05-05T06:41:56.081Z,23.33
2023-05-05T06:44:41.911Z,19.52
2023-05-05T06:47:27.764Z,16.88
2023-05-05T06:50:13.829Z,17.38
2023-05-05T06:52:59.795Z,20.65
2023-05-05T06:55:47.072Z,21.80
2023-05-05T06:58:33.189Z,20.42
2023-05-05T07:01:19.261Z,19.13
2023-05-05T07:04:05.288Z,20.50
2023-05-05T07:06:51.461Z,20.77
2023-05-05T07:09:37.671Z,18.48
2023-05-05T07:12:23.571Z,20.85
2023-05-05T07:15:23.426Z,21.95
2023-05-05T07:18:14.368Z,25.08
2023-05-05T07:21:01.397Z,28.35
2023-05-05T07:23:48.048Z,29.95
2023-05-05T07:26:34.206Z,24.67
2023-05-05T07:29:19.901Z,24.80
2023-05-05T07:32:05.937Z,26.55
2023-05-05T07:34:52.041Z,22.23
2023-05-05T07:37:38.194Z,22.48
2023-05-05T07:40:24.350Z,21.88
2023-05-05T07:43:10.603Z,18.17
2023-05-05T07:45:56.558Z,15.18
2023-05-05T07:48:42.499Z,22.08
2023-05-05T07:51:28.234Z,20.60
2023-05-05T07:54:14.069Z,18.20
2023-05-05T07:56:59.794Z,40.30
2023-05-05T07:59:45.805Z,42.92
2023-05-05T08:02:31.944Z,43.40
2023-05-05T08:05:17.934Z,24.65
2023-05-05T08:08:04.635Z,18.10
2023-05-05T08:10:53.067Z,32.17
2023-05-05T08:13:39.271Z,22.25
2023-05-05T08:16:25.178Z,15.65
2023-05-05T08:19:25.119Z,23.10
2023-05-05T08:22:16.621Z,26.00
2023-05-05T08:25:02.296Z,65.28
2023-05-05T08:27:48.113Z,41.95
2023-05-05T08:30:33.875Z,20.65
2023-05-05T08:33:19.960Z,16.90
2023-05-05T08:36:06.115Z,21.17
2023-05-05T08:38:51.820Z,14.05
2023-05-05T08:41:37.718Z,26.73
2023-05-05T08:44:23.828Z,18.92
2023-05-05T08:47:11.212Z,26.20
2023-05-05T08:49:59.436Z,18.15
2023-05-05T08:52:50.693Z,25.50
2023-05-05T08:56:07.804Z,17.10
2023-05-05T08:58:54.575Z,19.80
2023-05-05T09:01:42.872Z,22.75
2023-05-05T09:04:28.928Z,25.42
2023-05-05T09:07:14.982Z,14.38
2023-05-05T09:10:00.941Z,23.63
2023-05-05T09:12:47.070Z,18.67
2023-05-05T09:15:33.289Z,13.15
2023-05-05T09:18:19.087Z,11.02
2023-05-05T09:21:24.930Z,8.63
2023-05-05T09:24:12.357Z,16.17
2023-05-05T09:27:00.732Z,18.63
2023-05-05T09:29:49.774Z,17.40
2023-05-05T09:33:02.500Z,12.43
2023-05-05T09:35:49.759Z,11.25
2023-05-05T09:38:36.782Z,14.20
2023-05-05T09:41:44.329Z,11.38
2023-05-05T09:44:35.192Z,17.55
2023-05-05T09:47:34.928Z,24.02
2023-05-05T09:50:22.448Z,15.85
2023-05-05T09:53:08.506Z,23.10
2023-05-05T09:55:59.185Z,30.25
2023-05-05T09:58:45.360Z,26.75
2023-05-05T10:01:31.713Z,18.77
2023-05-05T10:04:28.783Z,9.10
2023-05-05T10:07:27.367Z,13.57
2023-05-05T10:10:15.556Z,20.88
2023-05-05T10:13:01.970Z,19.48
2023-05-05T10:15:51.465Z,12.32
2023-05-05T10:18:40.427Z,14.50
2023-05-05T10:21:26.881Z,10.98
2023-05-05T10:24:30.510Z,13.05
2023-05-05T10:27:19.954Z,63.90
2023-05-05T10:30:13.313Z,8.55
2023-05-05T10:33:18.529Z,8.50
2023-05-05T10:36:11.297Z,17.88
2023-05-05T10:38:57.925Z,12.60
2023-05-05T10:41:44.206Z,13.48
2023-05-05T10:44:33.228Z,9.43
2023-05-05T10:47:20.237Z,11.30
2023-05-05T10:50:16.384Z,11.90
2023-05-05T10:53:17.775Z,8.07
2023-05-05T10:56:10.880Z,15.95
2023-05-05T10:59:00.013Z,118.07
2023-05-05T11:01:46.688Z,14.65
2023-05-05T11:04:32.835Z,17.40
2023-05-05T11:07:22.771Z,9.38
2023-05-05T11:10:10.689Z,14.65
2023-05-05T11:12:59.349Z,9.88
2023-05-05T11:15:45.516Z,4.90
2023-05-05T11:18:36.491Z,6.18
2023-05-05T11:21:22.287Z,9.35
2023-05-05T11:24:42.747Z,8.55
2023-05-05T11:28:08.320Z,19.27
2023-05-05T11:30:58.374Z,67.32
2023-05-05T11:33:44.851Z,21.85
2023-05-05T11:36:39.832Z,7.35
2023-05-05T11:39:55.247Z,6.45
2023-05-05T11:42:41.219Z,5.13
2023-05-05T11:45:27.314Z,13.07
2023-05-05T11:48:30.085Z,6.60
2023-05-05T11:51:17.364Z,14.18
2023-05-05T11:54:03.632Z,8.40
2023-05-05T11:56:56.313Z,7.45
2023-05-05T12:00:06.174Z,10.80
2023-05-05T12:02:57.660Z,6.45
2023-05-05T12:05:43.997Z,17.02
2023-05-05T12:08:38.985Z,10.52
2023-05-05T12:11:25.218Z,8.15
2023-05-05T12:14:11.648Z,16.58
2023-05-05T12:16:58.715Z,9.52
2023-05-05T12:19:49.104Z,4.63
2023-05-05T12:22:35.479Z,7.05
2023-05-05T12:25:21.330Z,5.88
2023-05-05T12:29:17.483Z,4.82
2023-05-05T12:55:42.717Z,11.30
2023-05-05T13:03:06.299Z,10.98
2023-05-05T13:21:06.648Z,9.48
2023-05-05T13:23:52.632Z,10.73
2023-05-05T13:26:38.302Z,6.82
2023-05-05T13:29:28.368Z,9.52
2023-05-05T13:32:37.642Z,8.13
2023-05-05T13:35:23.508Z,34.72
2023-05-05T13:38:09.681Z,23.35
2023-05-05T13:40:55.775Z,7.70
2023-05-05T13:43:41.415Z,10.25
2023-05-05T13:46:27.127Z,11.05
2023-05-05T13:49:13.828Z,9.35
2023-05-05T13:52:00.055Z,12.43
2023-05-05T13:54:45.770Z,16.17
2023-05-05T13:57:31.640Z,10.23
2023-05-05T14:00:18.229Z,10.73
2023-05-05T14:03:04.586Z,11.13
2023-05-05T14:05:50.965Z,11.13
2023-05-05T14:08:37.025Z,8.55
2023-05-05T14:11:22.980Z,14.48
2023-05-05T14:14:09.155Z,13.10
2023-05-05T14:16:55.380Z,18.25
2023-05-05T14:19:49.727Z,12.98
2023-05-05T14:22:35.537Z,14.98
2023-05-05T14:25:21.896Z,14.65
2023-05-05T14:32:17.873Z,8.70
2023-05-05T14:35:09.988Z,12.57
2023-05-05T14:37:57.516Z,10.45
2023-05-05T14:40:43.898Z,11.63
2023-05-05T14:43:29.988Z,8.77
2023-05-05T14:46:15.748Z,12.00
2023-05-05T14:49:01.962Z,16.98
2023-05-05T14:51:49.250Z,16.80
2023-05-05T14:54:35.880Z,13.10
2023-05-05T14:57:22.100Z,10.73
2023-05-05T15:00:09.479Z,19.58
2023-05-05T15:02:55.406Z,13.88
2023-05-05T15:05:41.389Z,23.35
2023-05-05T15:08:28.987Z,7.07
2023-05-05T15:11:15.126Z,15.30
2023-05-05T15:14:01.074Z,12.27
2023-05-05T15:16:47.307Z,6.82
2023-05-05T15:19:38.289Z,14.00
2023-05-05T15:23:38.076Z,48.47
2023-05-05T15:26:24.127Z,77.90
2023-05-05T15:29:10.351Z,44.40
2023-05-05T15:31:58.793Z,33.97
2023-05-05T15:34:46.499Z,21.08
2023-05-05T15:37:33.653Z,19.55
2023-05-05T15:40:19.641Z,17.25
2023-05-05T15:43:05.597Z,20.23
2023-05-05T15:45:54.004Z,37.10
2023-05-05T15:48:40.219Z,63.65
2023-05-05T15:51:26.399Z,119.63
2023-05-05T15:54:12.475Z,176.10
2023-05-05T15:56:58.375Z,100.43
2023-05-05T15:59:44.584Z,36.28
2023-05-05T16:02:31.583Z,19.35
2023-05-05T16:05:20.194Z,25.67
2023-05-05T16:08:10.408Z,32.05
2023-05-05T16:10:56.236Z,44.03
2023-05-05T16:13:42.699Z,27.40
2023-05-05T16:16:29.257Z,28.88
2023-05-05T16:19:16.665Z,53.83
2023-05-05T16:22:02.933Z,25.58
2023-05-05T16:24:49.072Z,23.60
2023-05-05T16:27:34.928Z,31.80
2023-05-05T16:30:21.441Z,29.65
2023-05-05T16:33:07.594Z,26.08
2023-05-05T16:35:53.621Z,15.68
2023-05-05T16:38:40.649Z,18.05
2023-05-05T16:41:26.952Z,10.07
2023-05-05T16:44:18.291Z,53.83
2023-05-05T16:47:04.584Z,69.63
2023-05-05T16:49:50.540Z,53.47
2023-05-05T16:57:07.732Z,24.73
2023-05-05T16:59:56.117Z,16.50
2023-05-05T17:02:42.319Z,12.43
2023-05-05T17:05:28.484Z,11.50
2023-05-05T17:08:14.959Z,11.30
2023-05-05T17:11:00.750Z,17.10
2023-05-05T17:13:54.905Z,29.08
2023-05-05T17:16:43.262Z,25.88
2023-05-05T17:19:47.718Z,9.82
2023-05-05T17:22:35.345Z,9.35
2023-05-05T17:25:40.552Z,39.67
2023-05-05T17:28:26.520Z,22.40
2023-05-05T17:31:12.635Z,21.45
2023-05-05T17:33:58.751Z,29.70
2023-05-05T17:36:44.982Z,14.73
2023-05-05T17:39:31.095Z,31.38
2023-05-05T17:42:22.794Z,21.83
2023-05-05T17:45:09.481Z,27.25
2023-05-05T17:47:55.457Z,26.33
2023-05-05T17:50:43.203Z,26.95
2023-05-05T17:53:29.148Z,26.75
2023-05-05T17:56:14.976Z,24.00
2023-05-05T17:59:01.142Z,24.30
2023-05-05T18:01:47.290Z,49.50
2023-05-05T18:04:33.453Z,35.80
2023-05-05T18:07:19.360Z,72.97
2023-05-05T18:15:01.868Z,64.18
2023-05-05T18:22:43.885Z,33.08
2023-05-05T19:27:04.127Z,54.33
2023-05-05T19:39:04.576Z,41.22
2023-05-05T19:41:50.763Z,30.08
2023-05-05T19:44:36.869Z,39.78
2023-05-05T19:47:22.690Z,29.08
2023-05-05T19:50:09.778Z,101.43
2023-05-05T19:52:56.401Z,66.38
2023-05-05T19:55:42.426Z,156.05
2023-05-05T19:58:28.184Z,108.20
2023-05-05T20:01:14.039Z,62.35
2023-05-05T20:03:59.969Z,42.28
2023-05-05T20:06:46.058Z,38.80
2023-05-05T20:09:32.036Z,38.10
2023-05-05T20:12:19.843Z,44.58
2023-05-05T20:30:17.921Z,34.78
2023-05-05T20:34:49.653Z,36.72
2023-05-05T20:39:18.915Z,33.45
2023-05-05T20:43:48.911Z,30.00
2023-05-05T20:48:18.913Z,36.08
2023-05-05T20:52:48.888Z,35.35
2023-05-05T20:57:18.935Z,35.45
2023-05-05T21:00:06.810Z,53.72
2023-05-05T21:02:53.589Z,40.38
2023-05-05T21:29:49.959Z,32.55
2023-05-05T21:34:19.973Z,10.60
2023-05-05T21:47:24.868Z,21.13
2023-05-05T21:50:12.190Z,16.55
2023-05-05T21:54:09.906Z,14.77
2023-05-05T22:19:40.551Z,17.40
2023-05-05T22:22:26.579Z,15.52
2023-05-05T22:25:12.547Z,12.32
2023-05-05T22:32:49.632Z,12.60
2023-05-05T22:35:36.038Z,23.92
2023-05-05T22:38:22.037Z,13.20
2023-05-05T22:54:37.741Z,21.50
2023-05-05T22:57:23.444Z,17.58
2023-05-05T23:01:21.299Z,14.70
2023-05-05T23:04:07.448Z,14.32
2023-05-05T23:06:53.415Z,13.50
2023-05-05T23:09:39.247Z,14.30
2023-05-05T23:12:25.384Z,12.93
2023-05-05T23:15:11.924Z,9.77
2023-05-05T23:17:58.173Z,14.07
2023-05-05T23:20:44.456Z,13.68
2023-05-05T23:23:31.197Z,16.15
2023-05-05T23:26:16.854Z,14.73
2023-05-05T23:29:03.060Z,15.45
2023-05-05T23:31:48.836Z,13.15
2023-05-05T23:34:34.663Z,13.32
2023-05-05T23:37:20.410Z,15.40
2023-05-05T23:40:06.970Z,16.40
2023-05-05T23:42:52.698Z,10.77
2023-05-05T23:45:38.589Z,10.60
2023-05-05T23:48:24.384Z,14.10
2023-05-05T23:51:10.906Z,12.68
2023-05-05T23:53:57.366Z,18.58
2023-05-05T23:56:43.467Z,11.60
2023-05-05T23:59:39.807Z,12.90
